Time;durP1;ratioP1;P1;durP2;ratioP2;P2;SDS_P1;SDS_P2;PMS_P1;PMS_P2;Temp;Humidity;BMP_temperature;BMP_pressure;BME280_temperature;BME280_humidity;BME280_pressure;Samples;Min_cycle;Max_cycle;Signal;HPM_P1;HPM_P2
2022/07/15 00:02:07;;;;;;;3.77;3.03;;;16.30;99.90;;;;;;5015706;28;20485;-84
2022/07/15 00:04:34;;;;;;;4.03;2.80;;;16.20;99.90;;;;;;5013347;28;20450;-85
2022/07/15 00:07:00;;;;;;;10.60;3.60;;;16.10;99.90;;;;;;5015266;28;20461;-85
2022/07/15 00:12:11;;;;;;;4.00;2.73;;;15.90;99.90;;;;;;5010945;28;20506;-85
2022/07/15 00:14:38;;;;;;;4.77;2.60;;;15.90;99.90;;;;;;5007945;28;22251;-84
2022/07/15 00:17:04;;;;;;;4.27;3.23;;;15.80;99.90;;;;;;5009286;28;20453;-84
2022/07/15 00:19:30;;;;;;;4.43;3.00;;;15.80;99.90;;;;;;5009862;28;20445;-82
2022/07/15 00:21:56;;;;;;;5.30;3.30;;;15.80;99.90;;;;;;5002272;28;20483;-84
2022/07/15 00:24:22;;;;;;;3.00;2.70;;;15.70;99.90;;;;;;5000339;28;20440;-84
2022/07/15 00:26:48;;;;;;;3.60;2.50;;;15.70;99.90;;;;;;5000191;28;20511;-83
2022/07/15 00:29:13;;;;;;;7.70;3.00;;;15.70;99.90;;;;;;5018384;28;20210;-83
2022/07/15 00:31:39;;;;;;;5.70;3.93;;;15.60;99.90;;;;;;5013123;28;20733;-83
2022/07/15 00:34:04;;;;;;;4.87;2.30;;;15.60;99.90;;;;;;5013983;28;20698;-83
2022/07/15 00:36:30;;;;;;;2.97;2.67;;;15.60;99.90;;;;;;5014992;28;20210;-83
2022/07/15 00:38:57;;;;;;;5.63;2.27;;;15.50;99.90;;;;;;5013580;28;20179;-85
2022/07/15 00:41:22;;;;;;;8.77;3.60;;;15.50;99.90;;;;;;5023765;28;20214;-82
2022/07/15 00:43:48;;;;;;;5.30;2.80;;;15.50;99.90;;;;;;5024574;28;20994;-82
2022/07/15 00:46:21;;;;;;;3.67;2.67;;;15.40;99.90;;;;;;5018597;28;20213;-84
2022/07/15 00:48:47;;;;;;;2.83;2.53;;;15.40;99.90;;;;;;5017727;28;20872;-85
2022/07/15 00:51:13;;;;;;;5.63;2.53;;;15.50;99.90;;;;;;5011310;28;20532;-84
2022/07/15 00:53:39;;;;;;;3.20;2.30;;;15.40;99.90;;;;;;5014163;28;21287;-85
2022/07/15 00:56:09;;;;;;;4.83;2.23;;;15.30;99.90;;;;;;5014034;28;20797;-82
2022/07/15 01:01:03;;;;;;;3.97;2.60;;;15.30;99.90;;;;;;5028294;28;20474;-83
2022/07/15 01:03:31;;;;;;;4.13;2.25;;;15.30;99.90;;;;;;5048433;28;20216;-84
2022/07/15 01:05:57;;;;;;;6.13;2.67;;;15.20;99.90;;;;;;5044452;28;20185;-84
2022/07/15 01:08:24;;;;;;;5.47;2.73;;;15.20;99.90;;;;;;5024643;28;21019;-83
2022/07/15 01:10:51;;;;;;;5.50;3.03;;;15.10;99.90;;;;;;5038990;28;20427;-84
2022/07/15 01:13:19;;;;;;;8.77;3.10;;;15.10;99.90;;;;;;5041032;28;20811;-84
2022/07/15 01:15:44;;;;;;;10.13;2.77;;;15.20;99.90;;;;;;5040024;28;20754;-84
2022/07/15 01:18:10;;;;;;;5.93;2.87;;;15.10;99.90;;;;;;5040331;28;20487;-84
2022/07/15 01:20:40;;;;;;;7.37;2.30;;;15.10;99.90;;;;;;5043194;28;20216;-83
2022/07/15 01:23:05;;;;;;;5.80;2.78;;;15.00;99.90;;;;;;5039231;28;20260;-83
2022/07/15 01:25:31;;;;;;;5.77;2.97;;;15.00;99.90;;;;;;5042555;28;20293;-84
2022/07/15 01:27:56;;;;;;;4.53;2.00;;;15.10;99.90;;;;;;5040103;28;20208;-83
2022/07/15 01:30:22;;;;;;;4.83;3.00;;;;;;;;;;5040655;28;20196;-84
2022/07/15 01:32:48;;;;;;;3.47;2.40;;;15.10;99.90;;;;;;5048779;28;20188;-84
2022/07/15 01:35:14;;;;;;;2.50;2.20;;;15.10;99.90;;;;;;5051525;28;20496;-84
2022/07/15 01:37:39;;;;;;;4.97;2.90;;;15.00;99.90;;;;;;5046418;28;20205;-83
2022/07/15 01:40:07;;;;;;;5.27;3.10;;;14.90;99.90;;;;;;5047928;28;20203;-83
2022/07/15 01:42:32;;;;;;;3.58;2.60;;;14.90;99.90;;;;;;5050567;28;20173;-83
2022/07/15 01:44:58;;;;;;;7.03;2.53;;;14.90;99.90;;;;;;5050503;28;20192;-85
2022/07/15 01:47:24;;;;;;;8.03;2.53;;;14.80;99.90;;;;;;5045733;28;20188;-84
2022/07/15 01:49:49;;;;;;;3.23;2.20;;;14.80;99.90;;;;;;5044496;28;20293;-84
2022/07/15 01:52:15;;;;;;;5.50;2.50;;;14.70;99.90;;;;;;5046256;28;21025;-85
2022/07/15 01:54:41;;;;;;;6.93;2.90;;;14.80;99.90;;;;;;5047269;28;20601;-84
2022/07/15 01:57:06;;;;;;;4.20;2.40;;;14.80;99.90;;;;;;5045837;28;20250;-82
2022/07/15 01:59:32;;;;;;;3.20;2.47;;;15.90;99.90;;;;;;5042667;28;20668;-84
2022/07/15 02:01:58;;;;;;;4.47;2.17;;;14.60;99.90;;;;;;5047483;28;20208;-84
2022/07/15 02:04:23;;;;;;;3.73;2.53;;;15.10;99.90;;;;;;5048454;28;20191;-82
2022/07/15 02:06:49;;;;;;;3.30;2.53;;;14.40;99.90;;;;;;5046281;28;20208;-82
2022/07/15 02:09:15;;;;;;;3.63;2.07;;;14.40;99.90;;;;;;5045381;28;20600;-82
2022/07/15 02:11:41;;;;;;;4.95;2.97;;;14.40;99.90;;;;;;5049707;28;20192;-84
2022/07/15 02:14:07;;;;;;;2.85;2.20;;;14.20;99.90;;;;;;5048150;28;20236;-85
2022/07/15 02:16:33;;;;;;;3.13;2.53;;;14.30;99.90;;;;;;5053661;28;20177;-85
2022/07/15 02:19:00;;;;;;;4.53;2.20;;;14.30;99.90;;;;;;5052182;28;20744;-83
2022/07/15 02:21:26;;;;;;;2.60;2.40;;;14.30;99.90;;;;;;5050485;28;20467;-85
2022/07/15 02:23:52;;;;;;;3.60;2.25;;;14.30;99.90;;;;;;5045300;28;20193;-84
2022/07/15 02:26:18;;;;;;;2.72;1.95;;;14.20;99.90;;;;;;5046943;28;20681;-84
2022/07/15 02:28:44;;;;;;;7.15;2.65;;;14.10;99.90;;;;;;5044903;28;20633;-82
2022/07/15 02:31:10;;;;;;;3.10;2.70;;;14.60;99.90;;;;;;5045384;28;20226;-83
2022/07/15 02:33:35;;;;;;;3.10;2.17;;;14.10;99.90;;;;;;5041900;28;20351;-84
2022/07/15 02:36:01;;;;;;;5.77;3.10;;;14.10;99.90;;;;;;5044073;28;20186;-84
2022/07/15 02:38:26;;;;;;;3.10;2.27;;;14.00;99.90;;;;;;5046902;28;20217;-85
2022/07/15 02:40:52;;;;;;;4.73;2.70;;;14.10;99.90;;;;;;5042631;28;20206;-82
2022/07/15 02:43:17;;;;;;;3.73;2.23;;;14.80;99.90;;;;;;5045583;28;20240;-83
2022/07/15 02:45:43;;;;;;;5.90;2.37;;;14.00;99.90;;;;;;5043028;28;20216;-83
2022/07/15 02:48:09;;;;;;;6.88;3.33;;;14.10;99.90;;;;;;5037114;28;20221;-83
2022/07/15 02:50:35;;;;;;;4.40;2.00;;;14.00;99.90;;;;;;5037093;28;20255;-83
2022/07/15 02:53:02;;;;;;;4.70;2.65;;;14.00;99.90;;;;;;5037647;28;20189;-82
2022/07/15 02:55:27;;;;;;;4.15;2.50;;;14.90;99.90;;;;;;5039082;28;20193;-82
2022/07/15 02:57:53;;;;;;;4.70;2.80;;;13.80;99.90;;;;;;5039989;28;20209;-84
2022/07/15 03:00:19;;;;;;;6.00;2.77;;;13.80;99.90;;;;;;5041436;28;20204;-84
2022/07/15 03:02:46;;;;;;;2.90;1.90;;;13.80;99.90;;;;;;5036589;28;20438;-85
2022/07/15 03:05:13;;;;;;;3.63;2.80;;;13.70;99.90;;;;;;5040132;28;20185;-84
2022/07/15 03:07:39;;;;;;;5.93;2.90;;;13.80;99.90;;;;;;5049024;28;20550;-84
2022/07/15 03:10:06;;;;;;;3.05;2.45;;;13.80;99.90;;;;;;5050774;28;20214;-85
2022/07/15 03:12:32;;;;;;;3.22;2.33;;;13.80;99.90;;;;;;5055602;28;20182;-84
2022/07/15 03:14:59;;;;;;;4.55;2.70;;;13.80;99.90;;;;;;5046882;28;20192;-85
2022/07/15 03:17:25;;;;;;;3.88;2.10;;;13.90;99.90;;;;;;5043861;28;20193;-84
2022/07/15 03:19:51;;;;;;;3.90;2.43;;;13.90;99.90;;;;;;5046061;28;20773;-84
2022/07/15 03:22:16;;;;;;;2.80;2.50;;;13.90;99.90;;;;;;5048051;28;20193;-86
2022/07/15 03:24:42;;;;;;;3.60;2.17;;;13.80;99.90;;;;;;5049177;28;20191;-84
2022/07/15 03:27:11;;;;;;;3.90;2.47;;;13.80;99.90;;;;;;5044008;28;20193;-83
2022/07/15 03:29:36;;;;;;;5.05;2.72;;;13.90;99.90;;;;;;5041803;28;20433;-85
2022/07/15 03:32:02;;;;;;;10.63;2.53;;;13.90;99.90;;;;;;5043534;28;20667;-85
2022/07/15 03:34:28;;;;;;;3.50;2.17;;;14.00;99.90;;;;;;5048342;28;20263;-85
2022/07/15 03:36:54;;;;;;;3.83;2.40;;;14.10;99.90;;;;;;5045516;28;20822;-86
2022/07/15 03:39:21;;;;;;;2.53;2.05;;;14.20;99.90;;;;;;5047293;28;20177;-85
2022/07/15 03:41:46;;;;;;;3.55;2.42;;;14.20;99.90;;;;;;5047591;28;20705;-84
2022/07/15 03:44:13;;;;;;;2.90;2.43;;;14.20;99.90;;;;;;5040769;28;20192;-84
2022/07/15 03:46:39;;;;;;;5.63;2.70;;;14.20;99.90;;;;;;5055759;28;20197;-83
2022/07/15 03:49:05;;;;;;;9.32;4.20;;;14.30;99.90;;;;;;5039316;28;20185;-83
2022/07/15 03:51:30;;;;;;;5.80;2.40;;;14.40;99.90;;;;;;5041352;28;20178;-84
2022/07/15 03:54:03;;;;;;;3.13;2.30;;;14.50;99.90;;;;;;5042249;28;20177;-83
2022/07/15 03:56:30;;;;;;;6.15;2.30;;;14.60;99.90;;;;;;5041928;28;20191;-84
2022/07/15 03:58:56;;;;;;;2.67;2.33;;;14.80;99.90;;;;;;5053307;23;20236;-87
2022/07/15 04:01:22;;;;;;;3.92;2.40;;;15.00;99.90;;;;;;5038870;28;20194;-85
2022/07/15 04:03:49;;;;;;;5.25;2.42;;;15.20;99.90;;;;;;5040093;28;20262;-86
2022/07/15 04:06:16;;;;;;;3.80;1.70;;;15.20;99.90;;;;;;5043448;28;20204;-86
2022/07/15 04:08:42;;;;;;;3.33;2.20;;;15.30;99.90;;;;;;5034131;28;21130;-85
2022/07/15 04:11:09;;;;;;;3.65;1.70;;;15.40;99.90;;;;;;5023265;28;20539;-85
2022/07/15 04:13:34;;;;;;;5.47;2.50;;;15.50;99.90;;;;;;5032665;28;20728;-85
2022/07/15 04:16:00;;;;;;;5.17;2.83;;;15.50;99.90;;;;;;5027338;28;20436;-85
2022/07/15 04:18:25;;;;;;;2.70;2.23;;;15.40;99.90;;;;;;5025051;28;20692;-84
2022/07/15 04:20:51;;;;;;;7.27;2.10;;;15.40;99.90;;;;;;5031770;28;20719;-86
2022/07/15 04:23:16;;;;;;;5.50;2.47;;;15.60;99.90;;;;;;5035416;28;20184;-86
2022/07/15 04:25:42;;;;;;;4.97;2.50;;;15.80;99.90;;;;;;5039451;28;20189;-85
2022/07/15 04:28:08;;;;;;;5.17;2.90;;;17.10;99.90;;;;;;5033502;28;20183;-86
2022/07/15 04:30:33;;;;;;;4.30;2.27;;;18.90;99.90;;;;;;5030853;28;20197;-86
2022/07/15 04:32:59;;;;;;;3.63;2.33;;;20.50;99.90;;;;;;5030543;28;20566;-85
2022/07/15 04:35:25;;;;;;;5.13;2.47;;;22.00;99.90;;;;;;5028081;28;20931;-85
2022/07/15 04:37:50;;;;;;;3.70;2.33;;;23.70;99.90;;;;;;5031990;28;20186;-86
2022/07/15 04:40:16;;;;;;;4.47;2.50;;;25.20;92.90;;;;;;5023828;28;21239;-87
2022/07/15 04:42:41;;;;;;;9.40;2.70;;;25.50;89.70;;;;;;5035777;28;20186;-88
2022/07/15 04:45:07;;;;;;;5.40;3.50;;;26.10;86.00;;;;;;5031349;28;20371;-86
2022/07/15 04:47:33;;;;;;;4.57;2.70;;;27.30;82.60;;;;;;5030973;28;20181;-87
2022/07/15 04:52:46;;;;;;;4.37;2.33;;;27.30;75.20;;;;;;5024973;28;20307;-86
2022/07/15 04:55:13;;;;;;;3.93;2.50;;;27.60;69.70;;;;;;5031697;28;20445;-87
2022/07/15 04:57:39;;;;;;;3.23;2.60;;;29.20;67.20;;;;;;5050272;28;20452;-86
2022/07/15 05:00:06;;;;;;;3.30;1.97;;;30.40;64.40;;;;;;5035136;28;20457;-86
2022/07/15 05:02:32;;;;;;;5.40;2.50;;;32.00;58.80;;;;;;5039145;28;20232;-88
2022/07/15 05:04:58;;;;;;;5.27;2.60;;;;;;;;;;5029642;28;20462;-88
2022/07/15 05:07:23;;;;;;;4.23;2.80;;;33.80;49.60;;;;;;5030491;28;20177;-87
2022/07/15 05:09:49;;;;;;;4.47;3.07;;;35.20;48.70;;;;;;5031990;28;20876;-85
2022/07/15 05:12:15;;;;;;;5.90;4.07;;;34.80;46.90;;;;;;5026918;28;20215;-83
2022/07/15 05:14:40;;;;;;;5.50;4.20;;;;;;;;;;5057630;28;20188;-85
2022/07/15 05:17:09;;;;;;;5.90;4.87;;;35.50;43.80;;;;;;5041065;28;20189;-86
2022/07/15 05:19:35;;;;;;;5.50;4.90;;;36.50;41.30;;;;;;5042684;28;20475;-85
2022/07/15 05:22:01;;;;;;;5.40;5.10;;;37.20;40.90;;;;;;5034092;28;20474;-86
2022/07/15 05:24:27;;;;;;;6.77;6.37;;;37.30;39.30;;;;;;5037307;28;20184;-86
2022/07/15 05:26:52;;;;;;;90.23;13.63;;;37.30;38.00;;;;;;5037021;28;20189;-88
2022/07/15 05:29:21;;;;;;;58.93;11.47;;;36.00;40.00;;;;;;5041865;28;20201;-87
2022/07/15 05:31:47;;;;;;;11.13;7.50;;;34.50;40.90;;;;;;5041738;28;20196;-85
2022/07/15 05:34:13;;;;;;;8.47;7.63;;;34.40;42.40;;;;;;5038190;28;20435;-85
2022/07/15 05:36:38;;;;;;;7.97;7.27;;;35.50;41.90;;;;;;5036018;28;20484;-84
2022/07/15 05:39:04;;;;;;;7.73;7.13;;;35.60;40.70;;;;;;5031456;28;21016;-87
2022/07/15 05:41:32;;;;;;;8.30;6.77;;;35.40;41.00;;;;;;5029197;28;20294;-88
2022/07/15 05:43:58;;;;;;;7.77;6.87;;;35.40;39.80;;;;;;5039472;28;20181;-87
2022/07/15 05:46:23;;;;;;;8.80;8.10;;;36.50;40.30;;;;;;5031067;28;20435;-85
2022/07/15 05:48:49;;;;;;;9.60;8.17;;;37.10;39.50;;;;;;5036603;28;20895;-86
2022/07/15 05:51:14;;;;;;;12.77;8.13;;;38.50;38.50;;;;;;5041662;28;20180;-86
2022/07/15 05:53:40;;;;;;;10.37;9.47;;;39.20;36.00;;;;;;5035296;28;20192;-85
2022/07/15 05:56:06;;;;;;;11.50;10.47;;;40.90;35.40;;;;;;5038387;28;20190;-85
2022/07/15 05:58:31;;;;;;;12.47;11.50;;;41.60;34.10;;;;;;5033064;28;20212;-85
2022/07/15 06:00:57;;;;;;;10.67;9.97;;;;;;;;;;5039050;28;20518;-84
2022/07/15 06:03:23;;;;;;;11.97;11.23;;;;;;;;;;5035544;28;20201;-86
2022/07/15 06:05:49;;;;;;;12.63;11.47;;;;;;;;;;5044793;28;20455;-84
2022/07/15 06:08:15;;;;;;;13.03;12.07;;;;;;;;;;5036286;28;20426;-86
2022/07/15 06:10:42;;;;;;;14.47;13.40;;;42.50;31.20;;;;;;5032320;28;20518;-87
2022/07/15 06:13:07;;;;;;;14.50;13.07;;;43.40;30.70;;;;;;5042377;28;20506;-88
2022/07/15 06:15:33;;;;;;;13.00;12.10;;;42.10;30.50;;;;;;5043646;28;20434;-85
2022/07/15 06:17:59;;;;;;;13.80;13.00;;;39.90;31.30;;;;;;5040896;28;20184;-85
2022/07/15 06:20:25;;;;;;;14.13;13.33;;;39.70;31.80;;;;;;5036545;28;20589;-86
2022/07/15 06:22:51;;;;;;;13.60;12.77;;;40.00;32.20;;;;;;5033138;28;20986;-85
2022/07/15 06:25:17;;;;;;;14.90;13.80;;;39.80;32.80;;;;;;5040001;28;20450;-86
2022/07/15 06:27:43;;;;;;;20.27;14.13;;;40.00;32.00;;;;;;5047154;28;20467;-84
2022/07/15 06:30:09;;;;;;;17.43;15.90;;;39.90;32.00;;;;;;5033389;28;20206;-85
2022/07/15 06:32:35;;;;;;;15.50;14.60;;;41.50;32.00;;;;;;5032038;28;20442;-88
2022/07/15 06:35:01;;;;;;;12.97;11.97;;;41.80;31.40;;;;;;5030363;28;20451;-85
2022/07/15 06:37:27;;;;;;;18.00;17.03;;;40.80;30.30;;;;;;5033069;28;20186;-87
2022/07/15 06:39:54;;;;;;;15.93;15.03;;;40.40;31.00;;;;;;5033483;28;20474;-86
2022/07/15 06:42:20;;;;;;;14.57;13.60;;;;;;;;;;5029006;28;20536;-86
2022/07/15 06:44:46;;;;;;;14.50;13.50;;;39.10;31.50;;;;;;5035266;28;20429;-86
2022/07/15 06:47:12;;;;;;;14.73;13.83;;;39.20;31.90;;;;;;5051599;28;20443;-85
2022/07/15 06:49:38;;;;;;;19.30;17.80;;;40.70;31.10;;;;;;5048531;28;20528;-84
2022/07/15 06:52:04;;;;;;;14.13;13.43;;;41.10;29.60;;;;;;5039440;28;20188;-86
2022/07/15 06:54:30;;;;;;;17.20;15.97;;;40.50;29.40;;;;;;5026270;28;20440;-85
2022/07/15 06:56:57;;;;;;;13.73;12.83;;;39.70;29.90;;;;;;5045162;28;20474;-86
2022/07/15 06:59:23;;;;;;;14.97;13.80;;;40.20;30.30;;;;;;5037314;28;21039;-86
2022/07/15 07:01:48;;;;;;;16.07;15.17;;;41.40;29.80;;;;;;5059814;22;20583;-81
2022/07/15 07:04:14;;;;;;;14.53;13.60;;;41.80;29.50;;;;;;5043474;28;20185;-80
2022/07/15 07:06:39;;;;;;;13.73;12.90;;;41.40;28.30;;;;;;5042541;28;20278;-82
2022/07/15 07:09:05;;;;;;;13.83;13.10;;;41.20;28.20;;;;;;5050155;28;20232;-81
2022/07/15 07:11:32;;;;;;;12.73;11.87;;;39.50;28.60;;;;;;5044463;28;20203;-82
2022/07/15 07:13:59;;;;;;;9.63;8.77;;;39.30;29.90;;;;;;5043608;28;20217;-82
2022/07/15 07:16:25;;;;;;;10.00;9.20;;;39.90;30.30;;;;;;5044360;28;20434;-81
2022/07/15 07:18:51;;;;;;;11.60;11.00;;;40.60;29.00;;;;;;5043225;28;20463;-81
2022/07/15 07:21:17;;;;;;;13.70;12.90;;;40.50;28.70;;;;;;5043819;28;20205;-80
2022/07/15 07:23:43;;;;;;;9.40;8.60;;;40.90;29.30;;;;;;5043964;28;20443;-82
2022/07/15 07:26:10;;;;;;;7.93;7.40;;;41.30;28.80;;;;;;5042296;28;20478;-80
2022/07/15 07:28:38;;;;;;;9.20;7.70;;;41.50;28.60;;;;;;5045977;28;20462;-81
2022/07/15 07:31:04;;;;;;;10.37;9.70;;;42.30;27.90;;;;;;5044953;28;21101;-80
2022/07/15 07:33:29;;;;;;;9.00;8.50;;;42.40;27.10;;;;;;5045134;28;20518;-81
2022/07/15 07:35:55;;;;;;;16.00;14.70;;;43.70;27.00;;;;;;5045853;28;20196;-81
2022/07/15 07:38:21;;;;;;;14.60;13.70;;;44.60;27.20;;;;;;5045592;28;21254;-82
2022/07/15 07:40:49;;;;;;;13.30;12.60;;;45.80;25.60;;;;;;5046519;28;20195;-82
2022/07/15 07:43:17;;;;;;;13.33;12.43;;;45.80;24.00;;;;;;5046367;28;20421;-80
2022/07/15 07:45:43;;;;;;;13.83;12.87;;;45.80;24.20;;;;;;5042500;28;20443;-81
2022/07/15 07:48:08;;;;;;;11.90;11.30;;;43.90;24.90;;;;;;5048410;28;20462;-81
2022/07/15 07:50:34;;;;;;;14.47;13.77;;;44.50;24.20;;;;;;5045347;28;20429;-81
2022/07/15 07:53:00;;;;;;;11.97;11.37;;;44.70;23.90;;;;;;5046086;28;20750;-80
2022/07/15 07:55:25;;;;;;;15.33;14.63;;;44.70;23.90;;;;;;5042340;28;20291;-82
2022/07/15 07:57:56;;;;;;;15.43;14.73;;;44.80;22.40;;;;;;5044236;28;20200;-82
2022/07/15 08:00:23;;;;;;;14.43;13.13;;;44.50;22.20;;;;;;5046037;28;20233;-81
2022/07/15 08:02:49;;;;;;;13.93;13.10;;;44.10;23.70;;;;;;5047770;28;20455;-82
2022/07/15 08:05:16;;;;;;;13.20;12.60;;;43.60;24.20;;;;;;5044133;28;20502;-82
2022/07/15 08:07:42;;;;;;;15.13;14.13;;;42.50;24.00;;;;;;5040335;28;20209;-83
2022/07/15 08:10:09;;;;;;;15.57;14.53;;;41.70;24.50;;;;;;5036559;28;20438;-83
2022/07/15 08:12:37;;;;;;;13.00;12.00;;;40.90;25.90;;;;;;5043436;28;20438;-84
2022/07/15 08:15:07;;;;;;;13.93;13.30;;;40.70;25.40;;;;;;5042402;28;20435;-82
2022/07/15 08:17:33;;;;;;;13.23;12.20;;;42.00;25.40;;;;;;5040294;28;20455;-83
2022/07/15 08:19:59;;;;;;;12.30;11.60;;;42.00;25.40;;;;;;5037902;28;21203;-84
2022/07/15 08:22:24;;;;;;;10.60;10.00;;;41.60;24.30;;;;;;5040021;28;20483;-84
2022/07/15 08:24:50;;;;;;;14.20;13.30;;;39.90;24.60;;;;;;5039577;28;20189;-83
2022/07/15 08:27:16;;;;;;;14.50;13.60;;;38.80;25.60;;;;;;5039759;28;20230;-83
2022/07/15 08:29:42;;;;;;;12.00;11.40;;;36.90;26.60;;;;;;5045194;28;20188;-82
2022/07/15 08:32:07;;;;;;;13.90;13.10;;;36.40;27.70;;;;;;5040654;28;20449;-82
2022/07/15 08:34:33;;;;;;;15.17;14.20;;;37.40;26.80;;;;;;5039460;28;20276;-81
2022/07/15 08:36:59;;;;;;;13.90;13.17;;;38.60;26.30;;;;;;5038253;28;20261;-82
2022/07/15 08:39:24;;;;;;;11.23;10.63;;;38.50;26.60;;;;;;5035654;28;20600;-84
2022/07/15 08:41:51;;;;;;;12.97;12.27;;;39.50;25.90;;;;;;5036916;28;20211;-83
2022/07/15 08:44:17;;;;;;;12.00;11.40;;;39.80;25.80;;;;;;5039442;28;20169;-83
2022/07/15 08:46:47;;;;;;;11.97;11.27;;;40.10;26.50;;;;;;5038129;28;20455;-84
2022/07/15 08:49:14;;;;;;;10.93;10.10;;;39.90;25.50;;;;;;5037314;28;20312;-84
2022/07/15 08:51:44;;;;;;;10.70;10.10;;;39.30;26.10;;;;;;5034949;28;20505;-83
2022/07/15 08:54:10;;;;;;;13.37;11.20;;;39.00;27.10;;;;;;5035862;28;20514;-84
2022/07/15 08:56:37;;;;;;;10.10;9.50;;;39.30;26.20;;;;;;5033259;28;20474;-84
2022/07/15 08:59:04;;;;;;;10.87;10.37;;;38.60;26.40;;;;;;5034806;28;20464;-84
2022/07/15 09:01:31;;;;;;;9.70;9.10;;;39.00;27.00;;;;;;5034459;28;20603;-83
2022/07/15 09:03:58;;;;;;;8.93;8.13;;;38.10;26.50;;;;;;5035782;28;20485;-83
2022/07/15 09:06:51;;;;;;;9.23;8.40;;;39.60;26.20;;;;;;5034785;28;20441;-84
2022/07/15 09:09:32;;;;;;;9.40;8.90;;;37.70;26.00;;;;;;5035564;28;20480;-84
2022/07/15 09:11:58;;;;;;;9.37;8.70;;;;;;;;;;5036159;28;20509;-84
2022/07/15 09:14:28;;;;;;;10.40;9.80;;;37.40;27.50;;;;;;5040390;28;20436;-83
2022/07/15 09:17:10;;;;;;;10.53;9.60;;;35.70;27.20;;;;;;5035045;28;20473;-83
2022/07/15 09:20:09;;;;;;;12.67;11.67;;;35.80;27.90;;;;;;5037447;28;20536;-83
2022/07/15 09:22:49;;;;;;;11.43;9.67;;;36.10;28.30;;;;;;5035335;28;20471;-84
2022/07/15 09:25:14;;;;;;;8.90;8.13;;;34.40;29.10;;;;;;5041514;28;20473;-84
2022/07/15 09:27:42;;;;;;;9.10;8.60;;;35.50;29.20;;;;;;5034006;28;20486;-84
2022/07/15 09:36:04;;;;;;;13.73;12.50;;;38.00;27.90;;;;;;5040104;28;20442;-83
2022/07/15 09:38:45;;;;;;;11.87;11.17;;;39.30;26.90;;;;;;5037484;28;20470;-84
2022/07/15 09:41:26;;;;;;;12.50;11.60;;;39.50;26.50;;;;;;5038133;28;20513;-84
2022/07/15 09:44:19;;;;;;;11.93;11.10;;;37.60;27.30;;;;;;5039025;28;20439;-82
2022/07/15 09:46:49;;;;;;;14.17;11.27;;;36.30;27.50;;;;;;5039304;28;20445;-83
2022/07/15 09:49:21;;;;;;;10.87;9.97;;;35.20;28.50;;;;;;5039932;28;21900;-81
2022/07/15 09:52:09;;;;;;;11.70;10.63;;;35.30;29.30;;;;;;5034588;28;20449;-81
2022/07/15 09:54:54;;;;;;;11.03;9.80;;;34.80;29.30;;;;;;5040722;28;20475;-81
2022/07/15 09:59:51;;;;;;;11.10;10.40;;;35.60;29.80;;;;;;5018148;28;20513;-79
2022/07/15 10:02:17;;;;;;;11.20;10.40;;;36.80;28.50;;;;;;5022202;28;20565;-82
2022/07/15 10:04:43;;;;;;;11.87;10.93;;;38.10;28.00;;;;;;5023441;28;20468;-82
2022/07/15 10:07:12;;;;;;;11.60;10.73;;;38.90;28.10;;;;;;5027912;28;20863;-82
2022/07/15 10:09:38;;;;;;;11.63;10.73;;;39.10;27.20;;;;;;5020689;28;20212;-82
2022/07/15 10:12:14;;;;;;;12.60;11.80;;;37.50;27.20;;;;;;5021170;28;21046;-82
2022/07/15 10:14:56;;;;;;;11.63;11.03;;;37.00;27.30;;;;;;5026437;28;21077;-81
2022/07/15 10:17:38;;;;;;;11.57;10.70;;;36.40;28.10;;;;;;5022608;28;20456;-82
2022/07/15 10:20:39;;;;;;;11.90;11.20;;;36.40;28.50;;;;;;5022498;28;20502;-82
2022/07/15 10:23:07;;;;;;;11.77;10.93;;;35.20;28.50;;;;;;5020769;28;21026;-82
2022/07/15 10:25:48;;;;;;;10.90;10.20;;;35.50;28.60;;;;;;5020177;28;20483;-82
2022/07/15 10:28:31;;;;;;;10.70;10.00;;;35.40;29.00;;;;;;5022328;28;20460;-80
2022/07/15 10:31:17;;;;;;;10.07;9.37;;;36.00;29.20;;;;;;5019803;28;20865;-80
2022/07/15 10:34:03;;;;;;;10.13;9.53;;;36.00;29.50;;;;;;5022600;28;20919;-83
2022/07/15 10:36:47;;;;;;;11.00;10.27;;;36.50;28.00;;;;;;5021866;28;20514;-79
2022/07/15 10:39:26;;;;;;;9.30;8.87;;;34.40;29.40;;;;;;5027554;28;20466;-83
2022/07/15 10:41:58;;;;;;;8.70;8.10;;;34.10;30.70;;;;;;5022388;28;20467;-81
2022/07/15 10:44:29;;;;;;;12.17;8.80;;;31.90;32.90;;;;;;5022131;28;20443;-81
2022/07/15 10:47:13;;;;;;;8.37;6.73;;;30.60;33.80;;;;;;5025272;28;20975;-80
2022/07/15 10:49:42;;;;;;;6.67;5.30;;;29.40;35.70;;;;;;5022749;28;21418;-80
2022/07/15 10:52:16;;;;;;;5.20;4.57;;;28.70;36.80;;;;;;5017817;28;20439;-80
2022/07/15 10:55:04;;;;;;;5.93;4.30;;;28.60;36.40;;;;;;5017794;28;20441;-80
2022/07/15 10:57:56;;;;;;;4.10;3.90;;;27.70;37.40;;;;;;5014882;28;20444;-80
2022/07/15 11:00:31;;;;;;;5.80;2.60;;;27.60;38.00;;;;;;5011049;28;21293;-80
2022/07/15 11:03:08;;;;;;;8.40;4.00;;;27.60;39.20;;;;;;5018699;28;20438;-79
2022/07/15 11:05:40;;;;;;;6.17;4.30;;;27.70;38.20;;;;;;5016321;28;20439;-79
2022/07/15 11:08:31;;;;;;;4.33;4.03;;;27.70;40.20;;;;;;5014178;28;20439;-80
2022/07/15 11:10:57;;;;;;;3.63;3.27;;;26.90;39.80;;;;;;5017798;28;20442;-82
2022/07/15 11:13:33;;;;;;;5.13;2.57;;;26.30;41.30;;;;;;5018773;28;20442;-80
2022/07/15 11:16:00;;;;;;;6.80;3.00;;;26.00;41.70;;;;;;5015362;28;20959;-79
2022/07/15 11:18:25;;;;;;;4.50;2.57;;;26.20;42.60;;;;;;5016970;28;20472;-81
2022/07/15 11:20:53;;;;;;;8.53;3.07;;;26.40;42.00;;;;;;5021293;28;20800;-82
2022/07/15 11:23:20;;;;;;;11.90;3.20;;;26.40;42.10;;;;;;5019776;28;20183;-79
2022/07/15 11:25:47;;;;;;;7.63;3.17;;;26.80;41.60;;;;;;5020817;28;20427;-79
2022/07/15 11:28:14;;;;;;;11.73;3.40;;;27.40;41.60;;;;;;5022782;28;20610;-79
2022/07/15 11:30:42;;;;;;;4.27;2.70;;;27.30;41.00;;;;;;5013483;28;21078;-79
2022/07/15 11:33:13;;;;;;;6.90;3.03;;;26.90;40.60;;;;;;5016147;28;20636;-80
2022/07/15 11:35:47;;;;;;;6.47;3.07;;;26.70;41.00;;;;;;5021585;28;20450;-80
2022/07/15 11:38:13;;;;;;;6.80;4.13;;;26.30;42.50;;;;;;5021972;28;20449;-82
2022/07/15 11:46:15;;;;;;;2.90;2.67;;;26.80;42.10;;;;;;5024364;28;20537;-81
2022/07/15 11:48:41;;;;;;;3.87;2.90;;;26.20;41.40;;;;;;5027085;28;20508;-82
2022/07/15 11:51:09;;;;;;;4.37;2.70;;;26.30;42.60;;;;;;5024985;28;20423;-81
2022/07/15 11:53:47;;;;;;;4.87;2.93;;;27.00;43.30;;;;;;5021259;28;20243;-82
2022/07/15 11:56:14;;;;;;;4.80;3.03;;;26.80;41.10;;;;;;5026785;28;20435;-82
2022/07/15 11:58:42;;;;;;;4.50;2.60;;;26.60;41.10;;;;;;5026348;28;20508;-81
2022/07/15 12:01:11;;;;;;;11.23;3.07;;;27.10;41.70;;;;;;5025588;28;20495;-82
2022/07/15 12:03:45;;;;;;;4.23;2.77;;;27.40;40.40;;;;;;5025992;28;20420;-81
2022/07/15 12:06:16;;;;;;;5.57;2.53;;;27.30;41.00;;;;;;5024973;28;20522;-81
2022/07/15 12:08:48;;;;;;;3.53;2.70;;;27.10;40.80;;;;;;5025787;28;20456;-81
2022/07/15 12:11:20;;;;;;;4.43;3.17;;;27.20;40.70;;;;;;5024847;28;20759;-81
2022/07/15 12:14:10;;;;;;;3.47;2.80;;;27.40;40.10;;;;;;5026183;28;20536;-82
2022/07/15 12:16:50;;;;;;;2.83;2.60;;;27.80;39.40;;;;;;5012402;28;20461;-82
2022/07/15 12:19:27;;;;;;;3.90;3.10;;;27.90;39.70;;;;;;5025161;28;20466;-82
2022/07/15 12:21:55;;;;;;;3.57;3.23;;;27.10;40.70;;;;;;5020492;28;20459;-81
2022/07/15 12:24:26;;;;;;;8.70;2.70;;;27.00;41.10;;;;;;5024080;28;20478;-81
2022/07/15 12:26:54;;;;;;;5.03;2.93;;;26.70;41.10;;;;;;5027359;28;20431;-81
2022/07/15 12:29:33;;;;;;;3.57;3.20;;;26.80;42.10;;;;;;5025656;28;20507;-81
2022/07/15 12:32:06;;;;;;;4.37;3.60;;;26.40;41.90;;;;;;5027095;28;20445;-81
2022/07/15 12:35:04;;;;;;;8.70;2.87;;;26.40;42.10;;;;;;5024639;28;20449;-80
2022/07/15 12:37:29;;;;;;;7.77;2.20;;;26.30;42.90;;;;;;5007011;28;20456;-82
2022/07/15 12:39:55;;;;;;;5.83;2.93;;;26.30;43.50;;;;;;5023696;28;20859;-81
2022/07/15 12:42:21;;;;;;;6.40;2.83;;;26.20;43.40;;;;;;5026991;28;20206;-81
2022/07/15 12:45:05;;;;;;;4.73;3.30;;;26.50;42.50;;;;;;5024087;28;20371;-81
2022/07/15 12:47:31;;;;;;;4.83;2.80;;;26.90;42.60;;;;;;5023563;28;20467;-80
2022/07/15 12:49:59;;;;;;;2.97;2.43;;;27.00;43.20;;;;;;5022810;28;20432;-81
2022/07/15 12:52:39;;;;;;;11.00;3.07;;;27.40;43.20;;;;;;5032007;28;20182;-82
2022/07/15 12:55:20;;;;;;;2.73;2.53;;;28.20;42.70;;;;;;5024780;28;20478;-82
2022/07/15 12:57:47;;;;;;;7.13;2.37;;;28.50;40.60;;;;;;5027492;28;20959;-82
2022/07/15 13:00:16;;;;;;;3.20;2.60;;;28.10;41.00;;;;;;5025524;28;20446;-81
2022/07/15 13:02:57;;;;;;;3.50;2.37;;;27.80;41.40;;;;;;5025116;28;20804;-81
2022/07/15 13:05:23;;;;;;;3.27;2.97;;;27.50;42.20;;;;;;5022853;28;20431;-81
2022/07/15 13:07:49;;;;;;;7.63;3.33;;;27.60;41.50;;;;;;5027422;28;20457;-81
2022/07/15 13:10:15;;;;;;;4.73;3.07;;;27.00;41.60;;;;;;5023655;28;20436;-81
2022/07/15 13:12:40;;;;;;;5.90;2.90;;;26.70;42.50;;;;;;5028267;28;20187;-82